Marion, North Carolina
Current Conditions -  °F | °C
As of 12:15 PM on Thursday 23 Oct 2014 (Local Time) from KFQD Reporting Station
Clear Clear  
Wind Chill: 63°   Ceiling: Unl
Heat Index: 63°   Visibility: 10mi
Dew Point: 41°   Wind: 0mph
Humidity: 45%   Direction: NA
Pressure: 30.09"   Gusts: NA
Location:  35.68°N, 82.01°W
Report Text: KFQD 231615Z AUTO 00000KT 10SM CLR 17/05 A3009 RMK AO2 T01720050
Loading
Personal Weather Stations






























Interactive Weather Map
Tropical Storm Tracking
New forecast layout! Learn more

10-Day Weather Forecast

Advertisements
Track Severe Weather on mobile